Time;durP1;ratioP1;P1;durP2;ratioP2;P2;SDS_P1;SDS_P2;PMS_P1;PMS_P2;Temp;Humidity;BMP_temperature;BMP_pressure;BME280_temperature;BME280_humidity;BME280_pressure;Samples;Min_cycle;Max_cycle;Signal;HPM_P1;HPM_P2
2021/11/18 00:00:26;;;;;;;;;;;;;;;4.21;89.47;98001.69;30001;982;1864;-59
2021/11/18 00:00:58;;;;;;;;;;;;;;;4.21;89.55;97993.62;30001;982;1882;-59
2021/11/18 00:01:30;;;;;;;;;;;;;;;4.20;89.69;97991.97;30001;982;1882;-60
2021/11/18 00:02:02;;;;;;;;;;;;;;;4.19;89.54;97998.41;30001;983;1885;-59
2021/11/18 00:02:33;;;;;;;;;;;;;;;4.19;89.76;97993.03;30001;983;1881;-60
2021/11/18 00:03:05;;;;;;;;;;;;;;;4.19;89.77;97991.16;30001;983;1885;-58
2021/11/18 00:03:36;;;;;;;;;;;;;;;4.19;89.75;97993.84;30001;983;1881;-60
2021/11/18 00:04:07;;;;;;;;;;;;;;;4.20;89.79;97989.28;30001;983;1885;-60
2021/11/18 00:04:38;;;;;;;;;;;;;;;4.22;89.65;97989.87;30001;983;1881;-60
2021/11/18 00:05:12;;;;;;;;;;;;;;;4.21;89.62;97993.62;30001;983;1886;-60
2021/11/18 00:05:43;;;;;;;;;;;;;;;4.21;89.72;97989.06;30001;983;1864;-59
2021/11/18 00:06:15;;;;;;;;;;;;;;;4.20;89.63;97990.09;30001;982;1881;-59
2021/11/18 00:06:48;;;;;;;;;;;;;;;4.21;89.74;97993.62;30001;982;1882;-60
2021/11/18 00:07:19;;;;;;;;;;;;;;;4.21;89.74;97990.94;30001;982;1886;-59
2021/11/18 00:07:51;;;;;;;;;;;;;;;4.20;89.68;97983.91;30001;982;1882;-60
2021/11/18 00:08:22;;;;;;;;;;;;;;;4.19;89.88;97990.34;30001;982;1886;-60
2021/11/18 00:08:53;;;;;;;;;;;;;;;4.18;90.09;97999.44;30001;983;1881;-59
2021/11/18 00:09:24;;;;;;;;;;;;;;;4.18;89.89;97988.69;30001;983;1885;-59
2021/11/18 00:09:55;;;;;;;;;;;;;;;4.18;89.79;97991.38;30001;983;1881;-59
2021/11/18 00:10:28;;;;;;;;;;;;;;;4.16;89.94;97980.06;30001;983;1885;-60
2021/11/18 00:11:01;;;;;;;;;;;;;;;4.17;89.87;97987.06;30001;983;1864;-59
2021/11/18 00:11:32;;;;;;;;;;;;;;;4.17;90.06;97987.06;30001;983;1881;-59
2021/11/18 00:12:06;;;;;;;;;;;;;;;4.17;89.90;97987.06;30001;983;1881;-59
2021/11/18 00:12:38;;;;;;;;;;;;;;;4.17;90.01;97984.38;30001;983;1886;-58
2021/11/18 00:13:10;;;;;;;;;;;;;;;4.16;89.78;97980.06;30001;975;1894;-59
2021/11/18 00:13:43;;;;;;;;;;;;;;;4.17;89.90;97987.06;30001;982;1886;-60
2021/11/18 00:14:14;;;;;;;;;;;;;;;4.17;89.51;97993.25;30001;982;1881;-59
2021/11/18 00:14:44;;;;;;;;;;;;;;;4.17;89.94;97987.88;30001;982;1886;-58
2021/11/18 00:15:16;;;;;;;;;;;;;;;4.19;89.88;97984.97;30001;982;1864;-59
2021/11/18 00:15:47;;;;;;;;;;;;;;;4.20;89.72;97983.91;30001;982;1882;-60
2021/11/18 00:16:18;;;;;;;;;;;;;;;4.19;89.57;97985.78;30001;983;1863;-59
2021/11/18 00:16:49;;;;;;;;;;;;;;;4.20;89.43;97986.59;30001;983;1881;-60
2021/11/18 00:17:23;;;;;;;;;;;;;;;4.20;89.58;97986.59;30001;983;1863;-59
2021/11/18 00:17:59;;;;;;;;;;;;;;;4.21;89.46;97993.62;30001;983;1863;-59
2021/11/18 00:18:31;;;;;;;;;;;;;;;4.21;89.59;97985.56;30001;983;1881;-60
2021/11/18 00:19:04;;;;;;;;;;;;;;;4.22;89.43;97984.50;30001;983;1868;-60
2021/11/18 00:19:35;;;;;;;;;;;;;;;4.24;89.40;97987.78;30001;983;1877;-60
2021/11/18 00:20:08;;;;;;;;;;;;;;;4.22;89.21;97989.87;30001;983;1886;-60
2021/11/18 00:20:44;;;;;;;;;;;;;;;4.21;89.62;97990.94;30001;983;1881;-59
2021/11/18 00:21:26;;;;;;;;;;;;;;;4.20;89.59;97989.28;30001;982;1886;-61
2021/11/18 00:21:57;;;;;;;;;;;;;;;4.21;89.35;97988.25;30001;982;1882;-59
2021/11/18 00:22:28;;;;;;;;;;;;;;;4.22;89.17;97989.87;30001;982;1868;-60
2021/11/18 00:22:59;;;;;;;;;;;;;;;4.22;89.58;97987.19;30001;982;1877;-60
2021/11/18 00:23:33;;;;;;;;;;;;;;;4.22;89.38;97989.87;30001;982;1886;-59
2021/11/18 00:24:05;;;;;;;;;;;;;;;4.24;89.30;97985.09;30001;983;1881;-59
2021/11/18 00:24:36;;;;;;;;;;;;;;;4.24;89.08;97982.44;30001;983;1868;-59
2021/11/18 00:25:08;;;;;;;;;;;;;;;4.24;89.27;97987.78;30001;983;1876;-60
2021/11/18 00:25:38;;;;;;;;;;;;;;;4.24;88.95;97985.09;30001;983;1885;-60
2021/11/18 00:26:10;;;;;;;;;;;;;;;4.24;89.09;97982.44;30001;983;1881;-60
2021/11/18 00:26:41;;;;;;;;;;;;;;;4.23;89.04;97986.16;30001;983;1885;-59
2021/11/18 00:27:11;;;;;;;;;;;;;;;4.24;89.27;97977.06;30001;983;1864;-60
2021/11/18 00:27:42;;;;;;;;;;;;;;;4.23;89.07;97980.78;30001;983;1864;-59
2021/11/18 00:28:13;;;;;;;;;;;;;;;4.21;89.31;97982.88;30001;983;1881;-59
2021/11/18 00:28:44;;;;;;;;;;;;;;;4.23;89.18;97975.41;30001;982;1886;-59
2021/11/18 00:29:15;;;;;;;;;;;;;;;4.24;89.30;97988.63;30001;982;1881;-59
2021/11/18 00:29:46;;;;;;;;;;;;;;;4.24;89.26;97988.63;30001;982;1886;-60
2021/11/18 00:30:17;;;;;;;;;;;;;;;4.24;89.03;97993.16;30001;982;1882;-60
2021/11/18 00:30:48;;;;;;;;;;;;;;;4.25;89.04;97989.44;30001;982;1886;-59
2021/11/18 00:31:21;;;;;;;;;;;;;;;4.26;89.23;97996.44;30001;983;1881;-59
2021/11/18 00:31:52;;;;;;;;;;;;;;;4.25;89.30;97994.81;30001;983;1885;-59
2021/11/18 00:32:23;;;;;;;;;;;;;;;4.23;89.46;97989.66;30001;983;1863;-60
2021/11/18 00:32:54;;;;;;;;;;;;;;;4.23;89.06;97991.53;30001;983;1881;-60
2021/11/18 00:33:25;;;;;;;;;;;;;;;4.23;89.17;97988.84;30001;983;1881;-59
2021/11/18 00:33:56;;;;;;;;;;;;;;;4.23;89.43;97986.16;30001;983;1885;-59
2021/11/18 00:34:27;;;;;;;;;;;;;;;4.22;89.35;97985.34;30001;983;1881;-59
2021/11/18 00:34:58;;;;;;;;;;;;;;;4.23;89.15;97986.16;30001;983;1885;-59
2021/11/18 00:35:30;;;;;;;;;;;;;;;4.24;89.14;97987.78;30001;983;1881;-60
2021/11/18 00:36:01;;;;;;;;;;;;;;;4.26;89.18;97985.72;30001;983;1868;-58
2021/11/18 00:36:32;;;;;;;;;;;;;;;4.24;89.09;97988.63;30001;982;1877;-59
2021/11/18 00:37:03;;;;;;;;;;;;;;;4.24;89.27;97977.06;30001;982;1886;-60
2021/11/18 00:37:34;;;;;;;;;;;;;;;4.23;89.27;97984.28;30001;982;1874;-59
2021/11/18 00:38:06;;;;;;;;;;;;;;;4.24;89.17;97987.78;30001;982;1868;-59
2021/11/18 00:38:37;;;;;;;;;;;;;;;4.25;89.47;97987.56;30001;982;1877;-60
2021/11/18 00:39:07;;;;;;;;;;;;;;;4.27;89.40;97987.34;30001;983;1885;-60
2021/11/18 00:39:38;;;;;;;;;;;;;;;4.26;89.16;97985.72;30001;983;1881;-60
2021/11/18 00:40:10;;;;;;;;;;;;;;;4.25;89.21;97989.44;30001;983;1885;-60
2021/11/18 00:40:44;;;;;;;;;;;;;;;4.24;89.43;97985.94;30001;983;1881;-60
2021/11/18 00:41:14;;;;;;;;;;;;;;;4.25;89.40;97989.44;30001;983;1868;-58
2021/11/18 00:41:45;;;;;;;;;;;;;;;4.26;89.40;97991.09;30001;983;1877;-60
2021/11/18 00:42:16;;;;;;;;;;;;;;;4.26;89.41;97991.09;30001;983;1886;-59
2021/11/18 00:42:47;;;;;;;;;;;;;;;4.26;89.47;97985.72;30001;983;1881;-59
2021/11/18 00:43:18;;;;;;;;;;;;;;;4.26;89.46;97977.66;30001;982;1886;-60
2021/11/18 00:43:49;;;;;;;;;;;;;;;4.28;89.26;97983.63;30001;982;1881;-60
2021/11/18 00:44:20;;;;;;;;;;;;;;;4.27;89.50;97979.28;30001;982;1886;-60
2021/11/18 00:44:54;;;;;;;;;;;;;;;4.28;89.30;97975.56;30001;982;1864;-61
2021/11/18 00:45:25;;;;;;;;;;;;;;;4.27;89.58;97984.66;30001;982;1881;-60
2021/11/18 00:45:56;;;;;;;;;;;;;;;4.28;89.60;97980.94;30001;982;1882;-59
2021/11/18 00:46:28;;;;;;;;;;;;;;;4.27;89.48;97979.28;30001;983;1885;-60
2021/11/18 00:46:59;;;;;;;;;;;;;;;4.28;89.50;97986.31;30001;983;1881;-60
2021/11/18 00:47:30;;;;;;;;;;;;;;;4.28;89.38;97986.31;30001;983;1868;-60
2021/11/18 00:48:01;;;;;;;;;;;;;;;4.27;89.17;97971.22;30001;983;1877;-59
2021/11/18 00:48:31;;;;;;;;;;;;;;;4.27;89.53;97981.97;30001;983;1885;-60
2021/11/18 00:49:03;;;;;;;;;;;;;;;4.27;89.44;97981.97;30001;983;1881;-60
2021/11/18 00:49:34;;;;;;;;;;;;;;;4.25;89.15;97984.88;30001;983;1868;-60
2021/11/18 00:50:06;;;;;;;;;;;;;;;4.24;89.13;97988.63;30001;983;1859;-60
2021/11/18 00:50:42;;;;;;;;;;;;;;;4.26;89.35;97991.09;30001;982;1886;-57
2021/11/18 00:51:15;;;;;;;;;;;;;;;4.29;89.21;97991.44;30001;982;1881;-60
2021/11/18 00:51:46;;;;;;;;;;;;;;;4.28;88.86;97983.63;30001;982;1886;-60
2021/11/18 00:52:17;;;;;;;;;;;;;;;4.27;89.14;97981.97;30001;982;1882;-59
2021/11/18 00:52:48;;;;;;;;;;;;;;;4.27;89.13;97987.34;30001;982;1886;-60
2021/11/18 00:53:19;;;;;;;;;;;;;;;4.24;89.04;97985.94;30001;982;1882;-57
2021/11/18 00:53:53;;;;;;;;;;;;;;;4.24;89.09;97987.78;30001;983;1885;-60
2021/11/18 00:54:24;;;;;;;;;;;;;;;4.21;88.94;97993.62;30001;983;1881;-59
2021/11/18 00:54:56;;;;;;;;;;;;;;;4.23;88.74;97991.53;30001;983;1868;-61
2021/11/18 00:55:27;;;;;;;;;;;;;;;4.22;89.04;97993.41;30001;983;1877;-59
2021/11/18 00:55:58;;;;;;;;;;;;;;;4.21;89.08;97989.06;30001;983;1885;-60
2021/11/18 00:56:29;;;;;;;;;;;;;;;4.21;89.06;97994.44;30001;983;1881;-60
2021/11/18 00:57:00;;;;;;;;;;;;;;;4.22;89.27;97989.87;30001;983;1886;-60
2021/11/18 00:57:32;;;;;;;;;;;;;;;4.19;89.01;97995.72;30001;983;1881;-60
2021/11/18 00:58:04;;;;;;;;;;;;;;;4.19;88.90;97991.16;30001;982;1886;-60
2021/11/18 00:58:35;;;;;;;;;;;;;;;4.18;89.17;97989.50;30001;982;1881;-60
2021/11/18 00:59:05;;;;;;;;;;;;;;;4.18;89.32;97994.06;30001;971;1906;-59
2021/11/18 00:59:36;;;;;;;;;;;;;;;4.17;89.21;97987.88;30001;982;1882;-60
2021/11/18 01:00:11;;;;;;;;;;;;;;;4.16;89.15;97990.81;30001;982;1868;-59
2021/11/18 01:00:44;;;;;;;;;;;;;;;4.16;89.57;97991.59;30001;982;1877;-60
2021/11/18 01:01:15;;;;;;;;;;;;;;;4.14;89.50;97988.34;30001;982;1886;-60
2021/11/18 01:01:47;;;;;;;;;;;;;;;4.17;89.34;97997.78;30001;983;1881;-59
2021/11/18 01:02:18;;;;;;;;;;;;;;;4.18;89.52;97988.69;30001;983;1885;-60
2021/11/18 01:02:50;;;;;;;;;;;;;;;4.18;89.19;97988.69;30001;983;1881;-61
2021/11/18 01:03:22;;;;;;;;;;;;;;;4.17;89.30;97989.75;30001;983;1885;-60
2021/11/18 01:03:54;;;;;;;;;;;;;;;4.16;89.47;97986.22;30001;983;1881;-60
2021/11/18 01:04:27;;;;;;;;;;;;;;;4.16;89.57;97985.44;30001;983;1886;-60
2021/11/18 01:04:58;;;;;;;;;;;;;;;4.16;89.46;97985.44;30001;983;1881;-59
2021/11/18 01:05:31;;;;;;;;;;;;;;;4.16;89.45;97985.44;30001;982;1868;-60
2021/11/18 01:06:02;;;;;;;;;;;;;;;4.16;89.70;97982.75;30001;982;1877;-60
2021/11/18 01:06:33;;;;;;;;;;;;;;;4.14;89.77;97982.16;30001;982;1886;-60
2021/11/18 01:07:04;;;;;;;;;;;;;;;4.16;89.73;97983.53;30001;982;1882;-60
2021/11/18 01:07:36;;;;;;;;;;;;;;;4.14;89.54;97982.97;30001;982;1886;-61
2021/11/18 01:08:07;;;;;;;;;;;;;;;4.14;89.88;97987.53;30001;982;1882;-60
2021/11/18 01:08:38;;;;;;;;;;;;;;;4.14;89.76;97987.53;30001;982;1886;-58
2021/11/18 01:09:09;;;;;;;;;;;;;;;4.14;89.80;97988.34;30001;983;1881;-60
2021/11/18 01:09:40;;;;;;;;;;;;;;;4.14;89.57;97988.34;30001;983;1885;-60
2021/11/18 01:10:13;;;;;;;;;;;;;;;4.13;89.61;97991.25;30001;983;1881;-60
2021/11/18 01:10:49;;;;;;;;;;;;;;;4.12;89.57;97992.31;30001;983;1868;-59
2021/11/18 01:11:25;;;;;;;;;;;;;;;4.12;89.60;97987.75;30001;983;1877;-60
2021/11/18 01:11:56;;;;;;;;;;;;;;;4.11;89.82;97999.53;30001;983;1886;-61
2021/11/18 01:12:27;;;;;;;;;;;;;;;4.12;89.75;97997.69;30001;983;1881;-60
2021/11/18 01:12:59;;;;;;;;;;;;;;;4.11;89.54;97993.34;30001;983;1885;-60
2021/11/18 01:13:31;;;;;;;;;;;;;;;4.13;89.67;97991.25;30001;982;1881;-60
2021/11/18 01:14:04;;;;;;;;;;;;;;;4.11;89.95;97987.97;30001;982;1886;-60
2021/11/18 01:14:35;;;;;;;;;;;;;;;4.11;89.90;97993.34;30001;982;1882;-59
2021/11/18 01:15:08;;;;;;;;;;;;;;;4.10;89.93;97984.47;30001;982;1886;-61
2021/11/18 01:15:40;;;;;;;;;;;;;;;4.10;90.03;97989.03;30001;983;1881;-60
2021/11/18 01:16:12;;;;;;;;;;;;;;;4.09;89.93;97996.25;30001;983;1868;-59
2021/11/18 01:16:44;;;;;;;;;;;;;;;4.06;89.92;97988.66;30001;983;1877;-59
2021/11/18 01:17:16;;;;;;;;;;;;;;;4.06;90.21;97987.81;30001;983;1885;-60
2021/11/18 01:17:47;;;;;;;;;;;;;;;4.07;90.29;97984.09;30001;983;1881;-59
2021/11/18 01:18:19;;;;;;;;;;;;;;;4.08;90.21;97999.16;30001;983;1885;-60
2021/11/18 01:18:50;;;;;;;;;;;;;;;4.08;89.91;97991.94;30001;983;1881;-59
2021/11/18 01:19:21;;;;;;;;;;;;;;;4.11;90.08;97987.97;30001;983;1886;-60
2021/11/18 01:19:52;;;;;;;;;;;;;;;4.12;90.14;97997.69;30001;983;1881;-60
2021/11/18 01:20:23;;;;;;;;;;;;;;;4.12;89.94;97995.00;30001;983;1886;-61
2021/11/18 01:20:54;;;;;;;;;;;;;;;4.14;89.74;97992.91;30001;982;1881;-60
2021/11/18 01:21:26;;;;;;;;;;;;;;;4.13;89.69;97996.63;30001;982;1868;-59
2021/11/18 01:21:57;;;;;;;;;;;;;;;4.13;89.81;98002.00;30001;982;1877;-59
2021/11/18 01:22:31;;;;;;;;;;;;;;;4.12;89.80;98003.03;30001;982;1886;-58
2021/11/18 01:23:03;;;;;;;;;;;;;;;4.11;89.65;98006.78;30001;982;1882;-60
2021/11/18 01:23:36;;;;;;;;;;;;;;;4.12;89.81;97997.69;30001;983;1885;-60
2021/11/18 01:24:07;;;;;;;;;;;;;;;4.13;90.04;97996.63;30001;983;1881;-60
2021/11/18 01:24:40;;;;;;;;;;;;;;;4.13;89.87;98002.00;30001;983;1885;-60
2021/11/18 01:25:14;;;;;;;;;;;;;;;4.13;89.95;97991.25;30001;983;1881;-60
2021/11/18 01:25:44;;;;;;;;;;;;;;;4.14;89.84;97992.91;30001;983;1885;-60
2021/11/18 01:26:17;;;;;;;;;;;;;;;4.15;89.77;97994.53;30001;983;1881;-60
2021/11/18 01:26:48;;;;;;;;;;;;;;;4.15;89.76;97989.16;30001;983;1868;-59
2021/11/18 01:27:19;;;;;;;;;;;;;;;4.19;89.97;97987.66;30001;983;1804;-59
2021/11/18 01:27:50;;;;;;;;;;;;;;;4.19;89.83;97984.97;30001;983;1885;-57
2021/11/18 01:28:21;;;;;;;;;;;;;;;4.20;89.96;97986.59;30001;982;1882;-59
2021/11/18 01:28:53;;;;;;;;;;;;;;;4.20;89.94;97992.78;30001;982;1886;-59
2021/11/18 01:29:24;;;;;;;;;;;;;;;4.20;90.12;97986.59;30001;982;1882;-59
2021/11/18 01:29:55;;;;;;;;;;;;;;;4.21;90.07;97990.94;30001;982;1886;-59
2021/11/18 01:30:27;;;;;;;;;;;;;;;4.20;90.17;97994.66;30001;982;1882;-59
2021/11/18 01:30:58;;;;;;;;;;;;;;;4.19;90.45;97985.78;30001;983;1885;-60
2021/11/18 01:31:30;;;;;;;;;;;;;;;4.20;90.19;97997.34;30001;983;1881;-59
2021/11/18 01:32:01;;;;;;;;;;;;;;;4.19;90.24;97990.34;30001;983;1868;-59
2021/11/18 01:32:31;;;;;;;;;;;;;;;4.18;90.21;98000.25;30001;983;1877;-60
2021/11/18 01:33:04;;;;;;;;;;;;;;;4.18;90.29;97996.75;30001;983;1885;-58
2021/11/18 01:33:35;;;;;;;;;;;;;;;4.18;90.55;97994.88;30001;983;1881;-59
2021/11/18 01:34:06;;;;;;;;;;;;;;;4.19;90.81;97990.34;30001;983;1886;-59
2021/11/18 01:34:37;;;;;;;;;;;;;;;4.19;90.82;98001.06;30001;983;1881;-59
2021/11/18 01:35:09;;;;;;;;;;;;;;;4.18;90.92;97996.75;30001;983;1886;-59
2021/11/18 01:35:40;;;;;;;;;;;;;;;4.18;90.85;97999.44;30001;983;1881;-60
2021/11/18 01:36:12;;;;;;;;;;;;;;;4.18;91.04;97999.44;30001;982;1886;-59
2021/11/18 01:36:43;;;;;;;;;;;;;;;4.18;90.97;98004.81;30001;982;1882;-59
2021/11/18 01:37:14;;;;;;;;;;;;;;;4.18;91.07;98004.81;30001;982;1868;-60
2021/11/18 01:37:44;;;;;;;;;;;;;;;4.19;91.37;98006.44;30001;985;1868;-60
2021/11/18 01:38:16;;;;;;;;;;;;;;;4.19;91.12;98007.28;30001;983;1885;-60
2021/11/18 01:38:48;;;;;;;;;;;;;;;4.19;91.12;98001.06;30001;983;1881;-61
2021/11/18 01:39:18;;;;;;;;;;;;;;;4.19;91.15;98011.81;30001;983;1885;-60
2021/11/18 01:39:49;;;;;;;;;;;;;;;4.20;91.06;98008.09;30001;983;1881;-60
2021/11/18 01:40:22;;;;;;;;;;;;;;;4.20;91.12;98008.09;30001;983;1885;-60
2021/11/18 01:40:57;;;;;;;;;;;;;;;4.20;90.79;98006.22;30001;983;1881;-60
2021/11/18 01:41:29;;;;;;;;;;;;;;;4.20;90.95;98003.53;30001;983;1885;-60
2021/11/18 01:42:00;;;;;;;;;;;;;;;4.21;90.71;98004.37;30001;983;1881;-60
2021/11/18 01:42:31;;;;;;;;;;;;;;;4.20;90.87;98002.72;30001;982;1868;-59
2021/11/18 01:43:03;;;;;;;;;;;;;;;4.18;90.97;97999.44;30001;982;1877;-60
2021/11/18 01:43:37;;;;;;;;;;;;;;;4.20;90.60;98002.72;30001;982;1886;-59
2021/11/18 01:44:13;;;;;;;;;;;;;;;4.20;90.34;97997.34;30001;982;1881;-60
2021/11/18 01:44:46;;;;;;;;;;;;;;;4.20;90.57;98005.41;30001;982;1886;-60
2021/11/18 01:45:17;;;;;;;;;;;;;;;4.19;90.41;98001.06;30001;982;1881;-55
2021/11/18 01:45:48;;;;;;;;;;;;;;;4.18;90.54;97999.44;30001;983;1885;-60
2021/11/18 01:46:21;;;;;;;;;;;;;;;4.18;90.65;98004.81;30001;983;1881;-60
2021/11/18 01:46:52;;;;;;;;;;;;;;;4.16;90.67;97996.19;30001;983;1885;-60
2021/11/18 01:47:23;;;;;;;;;;;;;;;4.16;90.47;98001.56;30001;983;1881;-60
2021/11/18 01:47:54;;;;;;;;;;;;;;;4.16;90.57;98006.94;30001;983;1868;-59
2021/11/18 01:48:25;;;;;;;;;;;;;;;4.15;90.82;98006.09;30001;983;1815;-59
2021/11/18 01:48:56;;;;;;;;;;;;;;;4.14;90.93;98011.69;30001;983;1885;-59
2021/11/18 01:49:27;;;;;;;;;;;;;;;4.14;90.73;98014.38;30001;983;1881;-60
2021/11/18 01:49:58;;;;;;;;;;;;;;;4.11;90.91;98001.41;30001;982;1886;-59
2021/11/18 01:50:31;;;;;;;;;;;;;;;4.11;91.06;98009.47;30001;982;1881;-60
2021/11/18 01:51:03;;;;;;;;;;;;;;;4.11;90.85;98014.84;30001;982;1886;-61
2021/11/18 01:51:36;;;;;;;;;;;;;;;4.12;90.71;98011.09;30001;982;1882;-60
2021/11/18 01:52:08;;;;;;;;;;;;;;;4.12;90.62;98011.09;30001;982;1868;-60
2021/11/18 01:52:39;;;;;;;;;;;;;;;4.11;90.86;98010.28;30001;982;1877;-59
2021/11/18 01:53:12;;;;;;;;;;;;;;;4.14;90.57;98014.38;30001;982;1869;-60
2021/11/18 01:53:44;;;;;;;;;;;;;;;4.16;90.38;98002.34;30001;983;1876;-60
2021/11/18 01:54:18;;;;;;;;;;;;;;;4.17;90.48;98003.16;30001;983;1885;-61
2021/11/18 01:54:49;;;;;;;;;;;;;;;4.17;90.34;98003.16;30001;983;1881;-60
2021/11/18 01:55:21;;;;;;;;;;;;;;;4.17;90.56;97997.78;30001;983;1885;-59
2021/11/18 01:55:52;;;;;;;;;;;;;;;4.16;90.28;98006.94;30001;983;1881;-60
2021/11/18 01:56:24;;;;;;;;;;;;;;;4.16;90.46;98006.94;30001;983;1886;-59
2021/11/18 01:56:55;;;;;;;;;;;;;;;4.16;90.24;98010.41;30001;983;1881;-60
2021/11/18 01:57:27;;;;;;;;;;;;;;;4.16;90.52;98004.25;30001;983;1886;-56
2021/11/18 01:57:58;;;;;;;;;;;;;;;4.16;90.46;98006.94;30001;982;1881;-60
2021/11/18 01:58:29;;;;;;;;;;;;;;;4.15;90.25;98013.34;30001;982;1868;-59
2021/11/18 01:59:20;;;;;;;;;;;;;;;4.15;90.50;98014.16;30001;982;1877;-60
2021/11/18 01:59:51;;;;;;;;;;;;;;;4.12;90.85;98011.94;30001;982;1882;-59
2021/11/18 02:00:27;;;;;;;;;;;;;;;4.12;90.58;98017.28;30001;982;1882;-60
2021/11/18 02:01:00;;;;;;;;;;;;;;;4.12;90.56;98016.47;30001;983;1885;-60
2021/11/18 02:01:31;;;;;;;;;;;;;;;4.12;90.76;98011.09;30001;983;1881;-59
2021/11/18 02:02:03;;;;;;;;;;;;;;;4.12;90.95;98016.47;30001;983;1885;-60
2021/11/18 02:02:35;;;;;;;;;;;;;;;4.13;90.67;98015.44;30001;983;1881;-60
2021/11/18 02:03:06;;;;;;;;;;;;;;;4.12;90.92;98014.63;30001;983;1868;-60
2021/11/18 02:03:37;;;;;;;;;;;;;;;4.12;90.71;98016.47;30001;983;1877;-60
2021/11/18 02:04:12;;;;;;;;;;;;;;;4.12;91.01;98011.09;30001;983;1886;-60
2021/11/18 02:04:53;;;;;;;;;;;;;;;4.14;90.92;98019.75;30001;983;1881;-60
2021/11/18 02:05:29;;;;;;;;;;;;;;;4.14;90.89;98015.22;30001;982;1886;-60
2021/11/18 02:06:04;;;;;;;;;;;;;;;4.14;90.98;98004.47;30001;982;1882;-60
2021/11/18 02:06:36;;;;;;;;;;;;;;;4.14;91.41;98014.38;30001;982;1886;-60
2021/11/18 02:07:08;;;;;;;;;;;;;;;4.14;90.97;98011.69;30001;982;1882;-61
2021/11/18 02:07:40;;;;;;;;;;;;;;;4.13;91.17;98007.38;30001;982;1886;-60
2021/11/18 02:08:11;;;;;;;;;;;;;;;4.15;91.18;98005.28;30001;982;1864;-60
2021/11/18 02:08:41;;;;;;;;;;;;;;;4.15;91.29;98011.47;30001;983;1881;-60
2021/11/18 02:09:15;;;;;;;;;;;;;;;4.15;90.92;98007.97;30001;983;1881;-60
2021/11/18 02:09:47;;;;;;;;;;;;;;;4.15;91.21;98007.97;30001;983;1885;-60
2021/11/18 02:10:23;;;;;;;;;;;;;;;4.14;91.28;98009.00;30001;983;1881;-59
2021/11/18 02:10:56;;;;;;;;;;;;;;;4.15;91.24;98010.66;30001;983;1886;-59
2021/11/18 02:11:35;;;;;;;;;;;;;;;4.14;91.24;98007.16;30001;983;1881;-60
2021/11/18 02:12:11;;;;;;;;;;;;;;;4.14;91.22;98009.84;30001;983;1868;-59
2021/11/18 02:12:42;;;;;;;;;;;;;;;4.15;91.11;98006.09;30001;982;1877;-58
2021/11/18 02:13:15;;;;;;;;;;;;;;;4.13;91.21;98002.00;30001;982;1886;-60
2021/11/18 02:13:47;;;;;;;;;;;;;;;4.15;90.96;98005.28;30001;982;1881;-60
2021/11/18 02:14:19;;;;;;;;;;;;;;;4.15;90.87;98010.66;30001;982;1886;-60
2021/11/18 02:14:51;;;;;;;;;;;;;;;4.15;91.11;98005.28;30001;982;1882;-60
2021/11/18 02:15:32;;;;;;;;;;;;;;;4.16;90.92;98004.25;30001;983;1885;-60
2021/11/18 02:16:05;;;;;;;;;;;;;;;4.16;91.02;98012.31;30001;983;1881;-58
2021/11/18 02:16:37;;;;;;;;;;;;;;;4.15;90.54;98016.03;30001;983;1885;-60
2021/11/18 02:17:10;;;;;;;;;;;;;;;4.14;90.81;98011.69;30001;983;1863;-60
2021/11/18 02:17:41;;;;;;;;;;;;;;;4.13;90.76;98013.56;30001;983;1881;-59
2021/11/18 02:18:19;;;;;;;;;;;;;;;4.15;90.88;98018.72;30001;983;1881;-58
2021/11/18 02:18:51;;;;;;;;;;;;;;;4.15;90.91;98010.66;30001;983;1886;-59
2021/11/18 02:19:22;;;;;;;;;;;;;;;4.14;90.99;98014.38;30001;983;1864;-60
2021/11/18 02:19:58;;;;;;;;;;;;;;;4.15;90.65;98016.03;30001;983;1881;-60
2021/11/18 02:20:32;;;;;;;;;;;;;;;4.15;90.68;98013.34;30001;982;1881;-58
2021/11/18 02:21:07;;;;;;;;;;;;;;;4.15;90.79;98007.97;30001;982;1886;-59
2021/11/18 02:21:39;;;;;;;;;;;;;;;4.18;90.79;98012.88;30001;982;1881;-60
2021/11/18 02:22:10;;;;;;;;;;;;;;;4.18;90.72;98012.88;30001;982;1886;-60
2021/11/18 02:22:41;;;;;;;;;;;;;;;4.19;90.66;98011.81;30001;983;1881;-59
2021/11/18 02:23:14;;;;;;;;;;;;;;;4.17;90.75;98013.91;30001;983;1885;-60
2021/11/18 02:23:56;;;;;;;;;;;;;;;4.17;90.72;98020.09;30001;983;1863;-60
2021/11/18 02:24:28;;;;;;;;;;;;;;;4.17;90.59;98009.34;30001;983;1863;-61
2021/11/18 02:25:03;;;;;;;;;;;;;;;4.16;90.94;98012.31;30001;983;1881;-60
2021/11/18 02:25:34;;;;;;;;;;;;;;;4.17;90.86;98019.28;30001;983;1885;-60
2021/11/18 02:26:05;;;;;;;;;;;;;;;4.17;90.65;98011.22;30001;983;1881;-60
2021/11/18 02:26:35;;;;;;;;;;;;;;;4.17;90.82;98011.22;30001;983;1886;-60
2021/11/18 02:27:06;;;;;;;;;;;;;;;4.18;90.69;98015.56;30001;983;1881;-59
2021/11/18 02:27:37;;;;;;;;;;;;;;;4.19;90.79;98017.19;30001;983;1885;-60
2021/11/18 02:28:08;;;;;;;;;;;;;;;4.20;90.92;98013.47;30001;982;1881;-59
2021/11/18 02:28:41;;;;;;;;;;;;;;;4.20;90.80;98013.47;30001;982;1886;-60
2021/11/18 02:29:12;;;;;;;;;;;;;;;4.21;91.00;98015.94;30001;982;1864;-60
2021/11/18 02:29:44;;;;;;;;;;;;;;;4.20;90.85;98013.47;30001;982;1881;-60
2021/11/18 02:30:15;;;;;;;;;;;;;;;4.19;90.94;98009.13;30001;983;1881;-59
2021/11/18 02:30:47;;;;;;;;;;;;;;;4.19;91.14;98012.66;30001;983;1885;-58
2021/11/18 02:31:35;;;;;;;;;;;;;;;4.19;91.33;98006.44;30001;983;1881;-60
2021/11/18 02:32:08;;;;;;;;;;;;;;;4.19;91.37;98011.81;30001;983;1885;-60
2021/11/18 02:32:40;;;;;;;;;;;;;;;4.18;91.40;98016.38;30001;983;1863;-60
2021/11/18 02:33:13;;;;;;;;;;;;;;;4.19;91.09;98014.50;30001;983;1864;-59
2021/11/18 02:33:44;;;;;;;;;;;;;;;4.18;91.01;98021.75;30001;983;1881;-56
2021/11/18 02:34:22;;;;;;;;;;;;;;;4.18;91.28;98020.94;30001;983;1886;-60
2021/11/18 02:35:14;;;;;;;;;;;;;;;4.18;91.14;98023.62;30001;983;1881;-60
2021/11/18 02:35:47;;;;;;;;;;;;;;;4.19;91.29;98025.25;30001;982;1881;-59
2021/11/18 02:36:18;;;;;;;;;;;;;;;4.19;90.96;98025.25;30001;982;1882;-59
2021/11/18 02:36:49;;;;;;;;;;;;;;;4.20;90.97;98032.28;30001;982;1886;-60
2021/11/18 02:37:20;;;;;;;;;;;;;;;4.20;90.95;98032.28;30001;982;1882;-60
2021/11/18 02:37:52;;;;;;;;;;;;;;;4.20;90.86;98029.59;30001;983;1868;-60
2021/11/18 02:38:23;;;;;;;;;;;;;;;4.21;90.86;98039.28;30001;983;1876;-59
2021/11/18 02:38:54;;;;;;;;;;;;;;;4.21;91.14;98036.59;30001;983;1885;-60
2021/11/18 02:39:25;;;;;;;;;;;;;;;4.20;91.12;98034.97;30001;983;1881;-58
2021/11/18 02:39:56;;;;;;;;;;;;;;;4.22;91.08;98043.63;30001;983;1885;-59
2021/11/18 02:40:27;;;;;;;;;;;;;;;4.22;91.00;98046.31;30001;983;1881;-60
2021/11/18 02:40:58;;;;;;;;;;;;;;;4.21;91.19;98041.97;30001;983;1885;-60
2021/11/18 02:41:29;;;;;;;;;;;;;;;4.21;91.39;98042.78;30001;983;1881;-60
2021/11/18 02:42:00;;;;;;;;;;;;;;;4.20;91.32;98038.47;30001;983;1886;-60
2021/11/18 02:42:30;;;;;;;;;;;;;;;4.19;91.19;98036.81;30001;983;1881;-59
2021/11/18 02:43:04;;;;;;;;;;;;;;;4.20;91.27;98045.69;30001;982;1868;-59
2021/11/18 02:43:34;;;;;;;;;;;;;;;4.21;91.28;98045.47;30001;982;1877;-59
2021/11/18 02:44:06;;;;;;;;;;;;;;;4.21;91.46;98039.28;30001;982;1886;-60
2021/11/18 02:44:37;;;;;;;;;;;;;;;4.23;91.22;98045.25;30001;982;1882;-60
2021/11/18 02:45:13;;;;;;;;;;;;;;;4.23;91.47;98048.75;30001;982;1886;-59
2021/11/18 02:45:46;;;;;;;;;;;;;;;4.24;91.05;98049.59;30001;983;1863;-60
2021/11/18 02:46:17;;;;;;;;;;;;;;;4.23;91.37;98051.44;30001;983;1881;-60
2021/11/18 02:46:48;;;;;;;;;;;;;;;4.23;91.44;98056.00;30001;983;1881;-59
2021/11/18 02:47:19;;;;;;;;;;;;;;;4.22;91.47;98049.81;30001;983;1885;-59
2021/11/18 02:47:50;;;;;;;;;;;;;;;4.25;91.43;98056.59;30001;983;1881;-60
2021/11/18 02:48:21;;;;;;;;;;;;;;;4.24;91.24;98060.34;30001;983;1868;-60
2021/11/18 02:48:53;;;;;;;;;;;;;;;4.26;91.09;98050.19;30001;983;1877;-60
2021/11/18 02:49:24;;;;;;;;;;;;;;;4.26;91.29;98055.56;30001;983;1886;-59
2021/11/18 02:49:56;;;;;;;;;;;;;;;4.27;91.15;98051.81;30001;982;1881;-59
2021/11/18 02:50:30;;;;;;;;;;;;;;;4.29;91.05;98047.06;30001;982;1886;-59
2021/11/18 02:51:02;;;;;;;;;;;;;;;4.30;90.99;98051.38;30001;982;1881;-59
2021/11/18 02:51:33;;;;;;;;;;;;;;;4.30;91.15;98046.00;30001;982;1886;-59
2021/11/18 02:52:04;;;;;;;;;;;;;;;4.30;91.23;98051.38;30001;982;1882;-60
2021/11/18 02:52:36;;;;;;;;;;;;;;;4.30;91.39;98043.31;30001;982;1886;-60
2021/11/18 02:53:07;;;;;;;;;;;;;;;4.31;91.33;98050.34;30001;983;1881;-60
2021/11/18 02:53:38;;;;;;;;;;;;;;;4.31;91.03;98039.59;30001;983;1868;-59
2021/11/18 02:54:09;;;;;;;;;;;;;;;4.34;90.84;98036.47;30001;983;1859;-59